Time;durP1;ratioP1;P1;durP2;ratioP2;P2;SDS_P1;SDS_P2;PMS_P1;PMS_P2;Temp;Humidity;BMP_temperature;BMP_pressure;BME280_temperature;BME280_humidity;BME280_pressure;Samples;Min_cycle;Max_cycle;Signal;HPM_P1;HPM_P2
2022/01/21 00:00:18;;;;;;;;;;;-2.50;99.90;;;;;;4121829;28;19905;-58
2022/01/21 00:02:18;;;;;;;;;;;-2.50;99.90;;;;;;4123679;28;20469;-57
2022/01/21 00:04:19;;;;;;;;;;;-2.50;99.90;;;;;;4124052;28;19910;-55
2022/01/21 00:06:20;;;;;;;;;;;-2.50;99.90;;;;;;4123640;28;19965;-56
2022/01/21 00:08:21;;;;;;;;;;;-2.60;99.90;;;;;;4124053;28;19909;-55
2022/01/21 00:10:22;;;;;;;;;;;-2.70;99.90;;;;;;4123726;28;19921;-56
2022/01/21 00:12:24;;;;;;;;;;;-2.70;99.90;;;;;;4123942;28;19910;-58
2022/01/21 00:14:25;;;;;;;;;;;-2.70;99.90;;;;;;4109216;28;19960;-55
2022/01/21 00:16:27;;;;;;;;;;;-2.80;99.90;;;;;;4108836;28;19918;-55
2022/01/21 00:18:28;;;;;;;;;;;-2.80;99.90;;;;;;4110958;28;19918;-55
2022/01/21 00:30:12;;;;;;;;;;;-3.00;99.90;;;;;;4112104;28;19922;-54
2022/01/21 00:32:13;;;;;;;;;;;-3.10;99.90;;;;;;4110359;28;19910;-56
2022/01/21 00:34:14;;;;;;;;;;;-3.10;99.90;;;;;;4111269;28;19957;-58
2022/01/21 00:36:15;;;;;;;;;;;-3.10;99.90;;;;;;4110113;28;19913;-55
2022/01/21 00:38:16;;;;;;;;;;;-3.10;99.90;;;;;;4111296;28;19906;-53
2022/01/21 00:40:21;;;;;;;;;;;-3.10;99.90;;;;;;4110648;28;20302;-51
2022/01/21 00:44:23;;;;;;;;;;;-3.20;99.90;;;;;;4123538;28;20045;-58
2022/01/21 00:46:24;;;;;;;;;;;-3.20;99.90;;;;;;4127146;28;19954;-55
2022/01/21 00:48:26;;;;;;;;;;;-3.30;99.90;;;;;;4125607;28;20341;-58
2022/01/21 00:50:27;;;;;;;;;;;-3.30;99.90;;;;;;4126438;28;19932;-53
2022/01/21 00:52:27;;;;;;;;;;;-3.30;99.90;;;;;;4110956;28;19921;-55
2022/01/21 00:54:28;;;;;;;;;;;-3.40;99.90;;;;;;4110313;28;19917;-54
2022/01/21 00:56:29;;;;;;;;;;;-3.40;99.90;;;;;;4111349;28;20278;-56
2022/01/21 00:58:30;;;;;;;;;;;-3.40;99.90;;;;;;4109803;28;19914;-53
2022/01/21 01:00:31;;;;;;;;;;;-3.50;99.90;;;;;;4126531;28;20417;-53
2022/01/21 01:02:32;;;;;;;;;;;-3.50;99.90;;;;;;4125693;28;19921;-54
2022/01/21 01:04:33;;;;;;;;;;;-3.50;99.90;;;;;;4126371;28;20000;-57
2022/01/21 01:06:34;;;;;;;;;;;-3.50;99.90;;;;;;4125987;28;19909;-61
2022/01/21 01:08:35;;;;;;;;;;;-3.50;99.90;;;;;;4125338;28;20366;-54
2022/01/21 01:21:55;;;;;;;;;;;-3.70;99.90;;;;;;4110656;28;19961;-58
2022/01/21 01:27:36;;;;;;;;;;;-3.70;99.90;;;;;;4109527;28;20421;-55
2022/01/21 01:28:45;;;;;;;;;;;-3.80;99.90;;;;;;4117449;28;19913;-54
2022/01/21 01:30:46;;;;;;;;;;;-3.80;99.90;;;;;;4126029;28;19918;-55
2022/01/21 01:32:49;;;;;;;;;;;-3.80;99.90;;;;;;4125249;28;20355;-54
2022/01/21 01:34:50;;;;;;;;;;;-3.80;99.90;;;;;;4126274;28;19981;-52
2022/01/21 01:36:57;;;;;;;;;;;-3.90;99.90;;;;;;4125949;28;19909;-53
2022/01/21 01:39:40;;;;;;;;;;;-3.90;99.90;;;;;;4115783;28;19968;-56
2022/01/21 01:41:31;;;;;;;;;;;-4.00;99.90;;;;;;4110158;28;20429;-53
2022/01/21 01:50:21;;;;;;;;;;;-4.20;99.90;;;;;;4126011;28;19913;-56
2022/01/21 01:52:22;;;;;;;;;;;-4.30;99.90;;;;;;4124174;28;19913;-61
2022/01/21 01:54:23;;;;;;;;;;;-4.30;99.90;;;;;;4125138;28;19917;-53
2022/01/21 01:56:26;;;;;;;;;;;-4.30;99.90;;;;;;4126131;28;19905;-56
2022/01/21 01:58:27;;;;;;;;;;;-4.30;99.90;;;;;;4116808;28;20283;-50
2022/01/21 02:00:28;;;;;;;;;;;-4.30;99.90;;;;;;4125222;28;19917;-52
2022/01/21 02:02:29;;;;;;;;;;;-4.30;99.90;;;;;;4125139;28;19972;-54
2022/01/21 02:04:30;;;;;;;;;;;-4.30;99.90;;;;;;4125763;28;20350;-54
2022/01/21 02:06:31;;;;;;;;;;;-4.30;99.90;;;;;;4124380;28;19914;-54
2022/01/21 02:08:32;;;;;;;;;;;-4.30;99.90;;;;;;4125393;28;19913;-52
2022/01/21 02:10:34;;;;;;;;;;;-4.40;99.90;;;;;;4125134;28;19968;-54
2022/01/21 02:12:36;;;;;;;;;;;-4.40;99.90;;;;;;4124648;28;19968;-54
2022/01/21 02:14:43;;;;;;;;;;;-4.50;99.90;;;;;;4125330;28;20251;-57
2022/01/21 02:21:31;;;;;;;;;;;-4.60;99.90;;;;;;4125700;28;19992;-61
2022/01/21 02:23:32;;;;;;;;;;;-4.70;99.90;;;;;;4125328;28;19913;-53
2022/01/21 02:25:33;;;;;;;;;;;-4.70;99.90;;;;;;4125145;28;20362;-55
2022/01/21 02:27:34;;;;;;;;;;;-4.70;99.90;;;;;;4120931;28;20010;-57
2022/01/21 02:29:44;;;;;;;;;;;-4.70;99.90;;;;;;4108785;28;19918;-54
2022/01/21 02:31:45;;;;;;;;;;;-4.70;99.90;;;;;;4109224;28;20302;-57
2022/01/21 02:33:46;;;;;;;;;;;-4.80;99.90;;;;;;4108857;28;19910;-53
2022/01/21 02:35:47;;;;;;;;;;;-4.80;99.90;;;;;;4110459;28;20024;-51
2022/01/21 02:37:48;;;;;;;;;;;-4.80;99.90;;;;;;4124069;28;19909;-55
2022/01/21 02:39:50;;;;;;;;;;;-4.80;99.90;;;;;;4124744;28;19956;-55
2022/01/21 02:41:50;;;;;;;;;;;-4.90;99.90;;;;;;4123154;28;19909;-56
2022/01/21 02:43:51;;;;;;;;;;;-5.00;99.90;;;;;;4125389;28;20404;-56
2022/01/21 02:45:52;;;;;;;;;;;-5.00;99.90;;;;;;4124585;28;20350;-54
2022/01/21 02:47:53;;;;;;;;;;;-5.10;99.90;;;;;;4115323;28;20037;-53
2022/01/21 02:49:54;;;;;;;;;;;-5.10;99.90;;;;;;4108623;28;19937;-54
2022/01/21 02:51:56;;;;;;;;;;;-5.10;99.90;;;;;;4108574;28;20389;-54
2022/01/21 02:55:58;;;;;;;;;;;-5.10;99.90;;;;;;4108577;28;19910;-53
2022/01/21 02:57:59;;;;;;;;;;;-5.10;99.90;;;;;;4108599;28;20392;-51
2022/01/21 03:00:00;;;;;;;;;;;-5.00;99.90;;;;;;4120162;28;19960;-52
2022/01/21 03:02:01;;;;;;;;;;;-5.00;99.90;;;;;;4119953;28;19924;-53
2022/01/21 03:04:04;;;;;;;;;;;-5.00;99.90;;;;;;4124371;28;19960;-55
2022/01/21 03:06:05;;;;;;;;;;;-5.00;99.90;;;;;;4122500;28;20325;-58
2022/01/21 03:08:06;;;;;;;;;;;-5.00;99.90;;;;;;4107960;28;20334;-52
2022/01/21 03:10:08;;;;;;;;;;;-5.10;99.90;;;;;;4109441;28;20373;-58
2022/01/21 03:12:09;;;;;;;;;;;-5.10;99.90;;;;;;4108037;28;19910;-52
2022/01/21 03:14:09;;;;;;;;;;;-5.10;99.90;;;;;;4108747;28;20378;-59
2022/01/21 03:16:11;;;;;;;;;;;-5.20;99.90;;;;;;4108061;28;19921;-53
2022/01/21 03:18:12;;;;;;;;;;;-5.20;99.90;;;;;;4115171;28;20354;-54
2022/01/21 03:20:13;;;;;;;;;;;-5.30;99.90;;;;;;4124326;28;19968;-57
2022/01/21 03:22:13;;;;;;;;;;;-5.30;99.90;;;;;;4123541;28;19935;-56
2022/01/21 03:24:14;;;;;;;;;;;-5.30;99.90;;;;;;4122992;28;19918;-48
2022/01/21 03:26:20;;;;;;;;;;;-5.40;99.90;;;;;;4124378;28;19913;-54
2022/01/21 03:28:21;;;;;;;;;;;-5.50;99.90;;;;;;4121782;28;20370;-58
2022/01/21 03:30:22;;;;;;;;;;;-5.60;99.90;;;;;;4122872;28;19917;-53
2022/01/21 03:32:23;;;;;;;;;;;-5.70;99.90;;;;;;4118061;28;20340;-55
2022/01/21 03:34:24;;;;;;;;;;;-5.80;99.90;;;;;;4108670;28;20031;-54
2022/01/21 03:36:28;;;;;;;;;;;-5.80;99.90;;;;;;4124622;28;19937;-54
2022/01/21 03:38:29;;;;;;;;;;;-5.90;99.90;;;;;;4120607;28;19914;-61
2022/01/21 03:40:30;;;;;;;;;;;-5.90;99.90;;;;;;4108673;28;20431;-56
2022/01/21 03:42:31;;;;;;;;;;;-5.90;99.90;;;;;;4107136;28;20355;-57
2022/01/21 03:44:33;;;;;;;;;;;-5.90;99.90;;;;;;4108398;28;19957;-55
2022/01/21 03:46:34;;;;;;;;;;;-6.00;99.90;;;;;;4107403;28;20411;-56
2022/01/21 03:48:35;;;;;;;;;;;-6.00;99.90;;;;;;4108603;28;19910;-58
2022/01/21 03:50:36;;;;;;;;;;;-6.10;99.90;;;;;;4108027;28;19932;-56
2022/01/21 03:52:37;;;;;;;;;;;-6.10;99.90;;;;;;4118169;28;19910;-53
2022/01/21 03:54:38;;;;;;;;;;;-6.10;99.90;;;;;;4123673;28;19921;-53
2022/01/21 03:56:39;;;;;;;;;;;-6.10;99.90;;;;;;4123737;28;20384;-55
2022/01/21 03:58:40;;;;;;;;;;;-6.10;99.90;;;;;;4123393;28;19972;-55
2022/01/21 04:00:41;;;;;;;;;;;-6.10;99.90;;;;;;4123846;28;19909;-60
2022/01/21 04:02:42;;;;;;;;;;;-6.10;99.90;;;;;;4123937;28;20356;-54
2022/01/21 04:04:43;;;;;;;;;;;-6.00;99.90;;;;;;4123510;28;19964;-55
2022/01/21 04:06:44;;;;;;;;;;;-6.00;99.90;;;;;;4123735;28;20270;-53
2022/01/21 04:08:46;;;;;;;;;;;-6.00;99.90;;;;;;4113674;28;19914;-56
2022/01/21 04:10:48;;;;;;;;;;;-6.00;99.90;;;;;;4108424;28;19918;-58
2022/01/21 04:12:49;;;;;;;;;;;-6.10;99.90;;;;;;4107395;28;19910;-56
2022/01/21 04:14:51;;;;;;;;;;;-6.20;99.90;;;;;;4108531;28;19910;-59
2022/01/21 04:16:52;;;;;;;;;;;-6.30;99.90;;;;;;4106944;28;19913;-52
2022/01/21 04:18:52;;;;;;;;;;;-6.40;99.90;;;;;;4116133;28;20344;-57
2022/01/21 04:20:54;;;;;;;;;;;-6.40;99.90;;;;;;4123798;28;19910;-57
2022/01/21 04:22:55;;;;;;;;;;;-6.40;99.90;;;;;;4108767;28;20286;-54
2022/01/21 04:24:56;;;;;;;;;;;-6.40;99.90;;;;;;4107789;28;19910;-58
2022/01/21 04:26:56;;;;;;;;;;;-6.50;99.90;;;;;;4119406;28;21298;-57
2022/01/21 04:28:57;;;;;;;;;;;-6.50;99.90;;;;;;4123516;28;19933;-58
2022/01/21 04:30:58;;;;;;;;;;;-6.50;99.90;;;;;;4122750;28;19949;-59
2022/01/21 04:33:00;;;;;;;;;;;-6.50;99.90;;;;;;4123771;28;19933;-54
2022/01/21 04:35:00;;;;;;;;;;;-6.50;99.90;;;;;;4123109;28;19969;-56
2022/01/21 04:37:02;;;;;;;;;;;-6.50;99.90;;;;;;4123958;28;20370;-57
2022/01/21 04:39:06;;;;;;;;;;;-6.50;99.90;;;;;;4113475;28;19936;-60
2022/01/21 04:41:26;;;;;;;;;;;-6.60;99.90;;;;;;4108344;28;19918;-58
2022/01/21 04:48:07;;;;;;;;;;;-6.50;99.90;;;;;;4123561;28;20616;-57
2022/01/21 04:50:13;;;;;;;;;;;-6.50;99.90;;;;;;4120001;28;19972;-56
2022/01/21 04:52:14;;;;;;;;;;;-6.40;99.90;;;;;;4108004;28;20389;-60
2022/01/21 04:54:15;;;;;;;;;;;-6.40;99.90;;;;;;4108285;28;19934;-64
2022/01/21 04:56:15;;;;;;;;;;;-6.40;99.90;;;;;;4106524;28;19917;-58
2022/01/21 04:58:16;;;;;;;;;;;-6.40;99.90;;;;;;4107919;28;20354;-52
2022/01/21 05:00:17;;;;;;;;;;;-6.30;99.90;;;;;;4107624;28;19909;-57
2022/01/21 05:02:18;;;;;;;;;;;-6.30;99.90;;;;;;4123702;28;20337;-56
2022/01/21 05:04:20;;;;;;;;;;;-6.30;99.90;;;;;;4125934;28;19905;-59
2022/01/21 05:06:20;;;;;;;;;;;-6.30;99.90;;;;;;4125943;28;19944;-54
2022/01/21 05:08:24;;;;;;;;;;;-6.30;99.90;;;;;;4125660;28;19972;-58
2022/01/21 05:10:27;;;;;;;;;;;-6.20;99.90;;;;;;4114517;28;19925;-63
2022/01/21 05:12:28;;;;;;;;;;;-6.20;99.90;;;;;;4109678;28;19969;-57
2022/01/21 05:16:49;;;;;;;;;;;-6.20;99.90;;;;;;4112847;28;19914;-54
2022/01/21 05:18:49;;;;;;;;;;;-6.20;99.90;;;;;;4109932;28;19965;-57
2022/01/21 05:20:50;;;;;;;;;;;-6.20;99.90;;;;;;4115347;28;19968;-55
2022/01/21 05:22:51;;;;;;;;;;;-6.20;99.90;;;;;;4125113;28;19910;-54
2022/01/21 05:24:52;;;;;;;;;;;-6.20;99.90;;;;;;4125731;28;20410;-55
2022/01/21 05:26:54;;;;;;;;;;;-6.20;99.90;;;;;;4125463;28;19920;-54
2022/01/21 05:28:55;;;;;;;;;;;-6.20;99.90;;;;;;4118681;28;19917;-55
2022/01/21 05:30:56;;;;;;;;;;;-6.20;99.90;;;;;;4108518;28;19918;-53
2022/01/21 05:32:57;;;;;;;;;;;-6.20;99.90;;;;;;4111913;28;19956;-56
2022/01/21 05:34:58;;;;;;;;;;;-6.10;99.90;;;;;;4118750;28;19981;-53
2022/01/21 05:36:59;;;;;;;;;;;-6.10;99.90;;;;;;4124955;28;19913;-52
2022/01/21 05:39:00;;;;;;;;;;;-6.20;99.90;;;;;;4123810;28;19992;-51
2022/01/21 05:41:01;;;;;;;;;;;-6.10;99.90;;;;;;4125715;28;19944;-53
2022/01/21 05:43:01;;;;;;;;;;;-6.20;99.90;;;;;;4124613;28;19913;-55
2022/01/21 05:47:06;;;;;;;;;;;-6.10;99.90;;;;;;4124656;28;19964;-53
2022/01/21 05:49:07;;;;;;;;;;;-6.10;99.90;;;;;;4122930;28;19918;-55
2022/01/21 05:51:08;;;;;;;;;;;-6.10;99.90;;;;;;4122767;28;19921;-53
2022/01/21 05:53:11;;;;;;;;;;;-6.20;99.90;;;;;;4125387;28;20005;-56
2022/01/21 05:55:12;;;;;;;;;;;-6.20;99.90;;;;;;4124823;28;19910;-52
2022/01/21 05:57:16;;;;;;;;;;;-6.30;99.90;;;;;;4124024;28;20330;-54
2022/01/21 05:59:17;;;;;;;;;;;-6.40;99.90;;;;;;4124733;28;19917;-54
2022/01/21 06:01:18;;;;;;;;;;;-6.40;99.90;;;;;;4124486;28;19960;-57
2022/01/21 06:03:19;;;;;;;;;;;-6.40;99.90;;;;;;4125332;28;19993;-53
2022/01/21 06:05:20;;;;;;;;;;;-6.40;99.90;;;;;;4124445;28;19909;-56
2022/01/21 06:07:21;;;;;;;;;;;-6.40;99.90;;;;;;4125937;28;19980;-58
2022/01/21 06:09:21;;;;;;;;;;;-6.40;99.90;;;;;;4124559;28;19960;-54
2022/01/21 06:11:22;;;;;;;;;;;-6.30;99.90;;;;;;4125131;28;19918;-57
2022/01/21 06:13:23;;;;;;;;;;;-6.20;99.90;;;;;;4124415;28;19910;-57
2022/01/21 06:15:24;;;;;;;;;;;-6.00;99.90;;;;;;4124199;28;19909;-51
2022/01/21 06:17:25;;;;;;;;;;;-5.90;99.90;;;;;;4124558;28;19942;-52
2022/01/21 06:19:26;;;;;;;;;;;-5.90;99.90;;;;;;4124902;28;19934;-51
2022/01/21 06:21:27;;;;;;;;;;;-5.90;99.90;;;;;;4124029;28;20305;-51
2022/01/21 06:23:28;;;;;;;;;;;-5.70;99.90;;;;;;4124520;28;19914;-56
2022/01/21 06:25:29;;;;;;;;;;;-5.60;99.90;;;;;;4120520;28;20477;-54
2022/01/21 06:27:32;;;;;;;;;;;-5.50;99.90;;;;;;4123115;28;19913;-55
2022/01/21 06:29:33;;;;;;;;;;;-5.50;99.90;;;;;;4124530;28;19910;-54
2022/01/21 06:31:34;;;;;;;;;;;-5.40;99.90;;;;;;4124205;28;19924;-58
2022/01/21 06:33:35;;;;;;;;;;;-5.30;99.90;;;;;;4120807;28;19914;-57
2022/01/21 06:35:36;;;;;;;;;;;-4.90;99.90;;;;;;4124428;28;19910;-52
2022/01/21 06:37:37;;;;;;;;;;;-4.50;99.90;;;;;;4114726;28;19914;-58
2022/01/21 06:39:38;;;;;;;;;;;-4.10;99.90;;;;;;4123244;28;20369;-59
2022/01/21 06:41:40;;;;;;;;;;;-3.70;99.90;;;;;;4124852;28;19916;-57
2022/01/21 06:43:41;;;;;;;;;;;-3.40;99.90;;;;;;4120475;28;20046;-52
2022/01/21 06:45:43;;;;;;;;;;;-3.10;99.90;;;;;;4108743;28;20082;-59
2022/01/21 06:47:43;;;;;;;;;;;-2.80;99.90;;;;;;4123761;28;20328;-58
2022/01/21 06:49:46;;;;;;;;;;;-2.80;99.90;;;;;;4125113;28;19956;-56
2022/01/21 06:51:47;;;;;;;;;;;-2.90;99.90;;;;;;4124275;28;19937;-58
2022/01/21 06:53:48;;;;;;;;;;;-2.80;99.90;;;;;;4124756;28;19910;-55
2022/01/21 06:55:49;;;;;;;;;;;-2.70;99.90;;;;;;4136214;28;19909;-59
2022/01/21 06:57:50;;;;;;;;;;;-2.80;99.90;;;;;;4118226;28;20004;-59
2022/01/21 06:59:50;;;;;;;;;;;-2.90;99.90;;;;;;4114806;28;19910;-65
2022/01/21 07:01:51;;;;;;;;;;;-3.10;99.90;;;;;;4123061;28;20381;-60
2022/01/21 07:03:52;;;;;;;;;;;-3.40;99.90;;;;;;4125019;28;19924;-60
2022/01/21 07:05:53;;;;;;;;;;;-3.70;99.90;;;;;;4123949;28;19964;-61
2022/01/21 07:07:55;;;;;;;;;;;-4.10;99.90;;;;;;4124698;28;20346;-59
2022/01/21 07:09:56;;;;;;;;;;;-4.30;99.90;;;;;;4124198;28;19910;-59
2022/01/21 07:11:57;;;;;;;;;;;-4.30;99.90;;;;;;4124855;28;19934;-56
2022/01/21 07:13:58;;;;;;;;;;;-4.20;99.90;;;;;;4124365;28;20617;-56
2022/01/21 07:15:59;;;;;;;;;;;-4.30;99.90;;;;;;4116164;28;19965;-55
2022/01/21 07:18:00;;;;;;;;;;;-4.20;99.90;;;;;;4112914;28;19918;-60
2022/01/21 07:20:02;;;;;;;;;;;-4.10;99.90;;;;;;4124115;28;19925;-58
2022/01/21 07:22:03;;;;;;;;;;;-4.00;99.90;;;;;;4123523;28;19909;-59
2022/01/21 07:24:04;;;;;;;;;;;-3.80;99.90;;;;;;4108041;28;19953;-59
2022/01/21 07:26:05;;;;;;;;;;;-3.70;99.90;;;;;;4112545;28;19909;-59
2022/01/21 07:28:06;;;;;;;;;;;-3.60;99.90;;;;;;4138155;28;20325;-59
2022/01/21 07:30:07;;;;;;;;;;;-3.40;99.90;;;;;;4140319;28;19909;-58
2022/01/21 07:32:08;;;;;;;;;;;-3.10;99.90;;;;;;4139892;28;19964;-56
2022/01/21 07:34:09;;;;;;;;;;;-2.70;99.90;;;;;;4129635;28;20583;-56
2022/01/21 07:36:10;;;;;;;;;;;-2.60;99.90;;;;;;4123728;28;19964;-60
2022/01/21 07:38:11;;;;;;;;;;;-2.50;99.90;;;;;;4124129;28;20301;-60
2022/01/21 07:40:12;;;;;;;;;;;-2.30;99.90;;;;;;4123612;28;19956;-58
2022/01/21 07:42:13;;;;;;;;;;;-2.10;99.90;;;;;;4123933;28;20000;-59
2022/01/21 07:44:14;;;;;;;;;;;-1.90;99.90;;;;;;4123568;28;20382;-56
2022/01/21 07:46:16;;;;;;;;;;;-1.70;99.90;;;;;;4123998;28;19906;-56
2022/01/21 07:48:17;;;;;;;;;;;-1.70;99.90;;;;;;4119979;28;19918;-59
2022/01/21 07:50:17;;;;;;;;;;;-1.60;99.90;;;;;;4118467;28;19924;-55
2022/01/21 07:52:18;;;;;;;;;;;-1.70;99.90;;;;;;4114101;28;19909;-57
2022/01/21 07:54:19;;;;;;;;;;;-1.80;99.90;;;;;;4124641;28;19917;-52
2022/01/21 07:56:20;;;;;;;;;;;-1.80;99.90;;;;;;4124717;28;19929;-60
2022/01/21 07:58:21;;;;;;;;;;;-1.80;99.90;;;;;;4124093;28;20500;-60
2022/01/21 08:00:23;;;;;;;;;;;-1.70;99.90;;;;;;4131600;28;19910;-58
2022/01/21 08:02:26;;;;;;;;;;;-1.70;99.90;;;;;;4124328;28;19992;-58
2022/01/21 08:04:27;;;;;;;;;;;-1.60;99.90;;;;;;4130366;28;20618;-58
2022/01/21 08:06:29;;;;;;;;;;;-1.60;99.90;;;;;;4127611;28;19905;-59
2022/01/21 08:08:30;;;;;;;;;;;-1.60;99.90;;;;;;4139853;28;19909;-58
2022/01/21 08:10:33;;;;;;;;;;;-1.50;99.90;;;;;;4139200;28;19905;-59
2022/01/21 08:12:34;;;;;;;;;;;-1.50;99.90;;;;;;4140276;28;19909;-57
2022/01/21 08:14:35;;;;;;;;;;;-1.50;99.90;;;;;;4139101;28;20448;-54
2022/01/21 08:16:36;;;;;;;;;;;-1.50;99.90;;;;;;4139679;28;19946;-57
2022/01/21 08:18:37;;;;;;;;;;;-1.40;99.90;;;;;;4138456;28;19975;-55
2022/01/21 08:20:38;;;;;;;;;;;-1.50;99.90;;;;;;4133938;28;19948;-56
2022/01/21 08:22:39;;;;;;;;;;;-1.50;99.90;;;;;;4140203;28;19906;-56
2022/01/21 08:24:40;;;;;;;;;;;-1.50;99.90;;;;;;4139783;28;19917;-57
2022/01/21 08:26:41;;;;;;;;;;;-1.50;99.90;;;;;;4130149;28;19909;-56
2022/01/21 08:28:42;;;;;;;;;;;-1.50;99.90;;;;;;4123157;28;20334;-59
2022/01/21 08:30:43;;;;;;;;;;;-1.50;99.90;;;;;;4123546;28;19916;-59
2022/01/21 08:32:44;;;;;;;;;;;-1.20;99.90;;;;;;4123435;28;20325;-60
2022/01/21 08:34:45;;;;;;;;;;;-1.10;99.90;;;;;;4123586;28;19910;-58
2022/01/21 08:36:48;;;;;;;;;;;-1.10;99.90;;;;;;4119423;28;19968;-54
2022/01/21 08:38:50;;;;;;;;;;;-1.20;99.90;;;;;;4111369;28;19910;-61
2022/01/21 08:40:51;;;;;;;;;;;-1.50;99.90;;;;;;4109886;28;19960;-60
2022/01/21 08:42:52;;;;;;;;;;;-1.80;99.90;;;;;;4110918;28;19996;-57
2022/01/21 08:44:53;;;;;;;;;;;-1.90;99.90;;;;;;4116737;28;19909;-58
2022/01/21 08:46:54;;;;;;;;;;;-2.00;99.90;;;;;;4126558;28;19953;-57
2022/01/21 08:48:55;;;;;;;;;;;-2.10;99.90;;;;;;4126149;28;20374;-55
2022/01/21 08:50:57;;;;;;;;;;;-2.20;99.90;;;;;;4126829;28;19917;-56
2022/01/21 08:53:09;;;;;;;;;;;-2.30;99.90;;;;;;4126322;28;19941;-60
2022/01/21 08:55:11;;;;;;;;;;;-2.40;99.90;;;;;;4126509;28;19913;-56
2022/01/21 08:57:13;;;;;;;;;;;-2.40;99.90;;;;;;4125213;28;19905;-59
2022/01/21 08:59:14;;;;;;;;;;;-2.40;99.90;;;;;;4125528;28;19910;-55
2022/01/21 09:01:16;;;;;;;;;;;-2.30;99.90;;;;;;4126089;28;19914;-56
2022/01/21 09:03:17;;;;;;;;;;;-2.20;99.90;;;;;;4125164;28;20358;-58
2022/01/21 09:05:18;;;;;;;;;;;-2.00;99.90;;;;;;4119592;28;19916;-59
2022/01/21 09:07:22;;;;;;;;;;;-1.90;99.90;;;;;;4116861;28;19914;-59
2022/01/21 09:09:24;;;;;;;;;;;-1.90;99.90;;;;;;4113751;28;19960;-57
2022/01/21 09:11:25;;;;;;;;;;;-1.80;99.90;;;;;;4114841;28;20007;-60
2022/01/21 09:13:28;;;;;;;;;;;-1.80;99.90;;;;;;4119673;28;19914;-57
2022/01/21 09:15:31;;;;;;;;;;;-1.80;99.90;;;;;;4116131;28;19921;-59
2022/01/21 09:17:35;;;;;;;;;;;-1.70;99.90;;;;;;4118891;28;19980;-54
2022/01/21 09:19:35;;;;;;;;;;;-1.70;99.90;;;;;;4116615;28;20433;-57
2022/01/21 09:21:37;;;;;;;;;;;-1.50;99.90;;;;;;4119632;28;19922;-58
2022/01/21 09:23:38;;;;;;;;;;;-1.50;99.90;;;;;;4119808;28;20722;-60
2022/01/21 09:25:39;;;;;;;;;;;-1.40;99.90;;;;;;4112610;28;19921;-53
2022/01/21 09:27:40;;;;;;;;;;;-1.50;99.90;;;;;;4116209;28;19969;-56
2022/01/21 09:29:41;;;;;;;;;;;-1.40;99.90;;;;;;4110673;28;19918;-58
2022/01/21 09:31:43;;;;;;;;;;;-1.30;99.90;;;;;;4112003;28;19929;-56
2022/01/21 09:33:44;;;;;;;;;;;-1.00;99.90;;;;;;4115863;28;20358;-59
2022/01/21 09:35:45;;;;;;;;;;;-0.60;99.90;;;;;;4117802;28;19918;-60
2022/01/21 09:37:46;;;;;;;;;;;-0.30;99.90;;;;;;4119679;28;19984;-60
2022/01/21 09:39:47;;;;;;;;;;;0.10;99.90;;;;;;4117024;28;19952;-58
2022/01/21 09:41:48;;;;;;;;;;;0.40;99.90;;;;;;4125547;28;19921;-56
2022/01/21 09:43:52;;;;;;;;;;;0.70;99.90;;;;;;4113448;28;19918;-58
2022/01/21 09:45:54;;;;;;;;;;;0.90;99.90;;;;;;4121204;28;19917;-60
2022/01/21 09:47:58;;;;;;;;;;;0.90;99.90;;;;;;4112039;28;19913;-60
2022/01/21 09:50:00;;;;;;;;;;;0.90;99.90;;;;;;4119530;28;19964;-56
2022/01/21 09:52:05;;;;;;;;;;;0.90;99.90;;;;;;4121156;28;19929;-57
2022/01/21 09:54:06;;;;;;;;;;;1.00;99.90;;;;;;4110303;28;20367;-55
2022/01/21 09:56:08;;;;;;;;;;;1.00;99.90;;;;;;4119619;28;20452;-59
2022/01/21 09:58:09;;;;;;;;;;;1.00;99.90;;;;;;4122453;28;19980;-58
2022/01/21 10:00:11;;;;;;;;;;;0.90;99.90;;;;;;4120510;28;20664;-57
2022/01/21 10:02:13;;;;;;;;;;;0.90;99.90;;;;;;4114269;28;19922;-58
2022/01/21 10:04:13;;;;;;;;;;;1.00;99.90;;;;;;4121180;28;20732;-59
2022/01/21 10:06:15;;;;;;;;;;;1.00;99.90;;;;;;4112713;28;19920;-62
2022/01/21 10:08:17;;;;;;;;;;;0.90;99.90;;;;;;4125568;28;19980;-55
2022/01/21 10:10:19;;;;;;;;;;;1.00;99.90;;;;;;4125182;28;20357;-59
2022/01/21 10:12:20;;;;;;;;;;;1.10;99.90;;;;;;4108801;28;19918;-62
2022/01/21 10:14:22;;;;;;;;;;;1.10;99.90;;;;;;4116107;28;19963;-60
2022/01/21 10:16:22;;;;;;;;;;;1.20;99.90;;;;;;4113499;28;19964;-59
2022/01/21 10:18:23;;;;;;;;;;;1.10;99.90;;;;;;4118016;28;19914;-59
2022/01/21 10:20:24;;;;;;;;;;;1.00;99.90;;;;;;4123639;28;19922;-64
2022/01/21 10:22:26;;;;;;;;;;;1.00;99.90;;;;;;4121951;28;20329;-63
2022/01/21 10:24:27;;;;;;;;;;;0.90;99.90;;;;;;4122612;28;20334;-58
2022/01/21 10:26:28;;;;;;;;;;;1.10;99.90;;;;;;4121709;28;20439;-56
2022/01/21 10:28:30;;;;;;;;;;;1.10;99.90;;;;;;4121374;28;19914;-56
2022/01/21 10:30:31;;;;;;;;;;;1.10;99.90;;;;;;4124338;28;19924;-58
2022/01/21 10:32:33;;;;;;;;;;;1.10;99.90;;;;;;4123992;28;19921;-59
2022/01/21 10:34:34;;;;;;;;;;;1.10;99.90;;;;;;4124960;28;20426;-58
2022/01/21 10:36:43;;;;;;;;;;;1.00;99.90;;;;;;4112838;28;19916;-57
2022/01/21 10:38:46;;;;;;;;;;;0.80;99.90;;;;;;4110133;28;19910;-58
2022/01/21 10:40:47;;;;;;;;;;;0.70;99.90;;;;;;4118070;28;19914;-58
2022/01/21 10:42:48;;;;;;;;;;;0.60;99.90;;;;;;4124984;28;20358;-55
2022/01/21 10:44:50;;;;;;;;;;;0.40;99.90;;;;;;4125038;28;19973;-56
2022/01/21 10:47:10;;;;;;;;;;;0.30;99.90;;;;;;4124151;28;19910;-58
2022/01/21 10:49:12;;;;;;;;;;;0.30;99.90;;;;;;4124414;28;19909;-57
2022/01/21 10:51:17;;;;;;;;;;;0.00;99.90;;;;;;4124276;28;19979;-59
2022/01/21 10:53:25;;;;;;;;;;;0.00;99.90;;;;;;4113656;28;19906;-60
2022/01/21 10:55:37;;;;;;;;;;;0.00;99.90;;;;;;4108502;28;19965;-61
2022/01/21 10:57:38;;;;;;;;;;;0.00;99.90;;;;;;4116440;28;19937;-57
2022/01/21 10:59:50;;;;;;;;;;;0.00;99.90;;;;;;4124100;28;19910;-59
2022/01/21 11:01:58;;;;;;;;;;;-0.10;99.90;;;;;;4122810;28;20036;-55
2022/01/21 11:04:11;;;;;;;;;;;-0.10;99.90;;;;;;4135272;28;19972;-57
2022/01/21 11:06:14;;;;;;;;;;;-0.10;99.90;;;;;;4140891;28;19963;-51
2022/01/21 11:08:16;;;;;;;;;;;-0.10;99.90;;;;;;4139424;28;20324;-55
2022/01/21 11:10:36;;;;;;;;;;;-0.10;99.90;;;;;;4134301;28;20016;-54
2022/01/21 11:12:36;;;;;;;;;;;0.00;99.90;;;;;;4118478;28;19922;-57
2022/01/21 11:14:38;;;;;;;;;;;0.10;99.90;;;;;;4121540;28;20322;-50
2022/01/21 11:16:41;;;;;;;;;;;0.10;99.90;;;;;;4122588;28;20700;-57
2022/01/21 11:18:49;;;;;;;;;;;0.20;99.90;;;;;;4118810;28;19917;-56
2022/01/21 11:20:59;;;;;;;;;;;0.20;99.90;;;;;;4124287;28;20372;-57
2022/01/21 11:23:00;;;;;;;;;;;0.00;99.90;;;;;;4124221;28;19909;-58
2022/01/21 11:25:00;;;;;;;;;;;-0.20;99.90;;;;;;4117096;28;19964;-57
2022/01/21 11:27:16;;;;;;;;;;;-0.30;99.90;;;;;;4124117;28;19909;-54
2022/01/21 11:29:17;;;;;;;;;;;-0.50;99.90;;;;;;4123786;28;19964;-57
2022/01/21 11:31:22;;;;;;;;;;;-0.60;99.90;;;;;;4123798;28;19905;-57
2022/01/21 11:33:23;;;;;;;;;;;-0.70;99.90;;;;;;4124162;28;19906;-57
2022/01/21 11:35:25;;;;;;;;;;;-0.70;99.90;;;;;;4124394;28;20858;-56
2022/01/21 11:37:26;;;;;;;;;;;-0.70;99.90;;;;;;4123242;28;20792;-57
2022/01/21 11:39:27;;;;;;;;;;;-0.70;99.90;;;;;;4124209;28;19910;-57
2022/01/21 11:41:28;;;;;;;;;;;-0.70;99.90;;;;;;4123855;28;19937;-58
2022/01/21 11:43:31;;;;;;;;;;;-0.80;99.90;;;;;;4122871;28;20049;-61
2022/01/21 11:46:03;;;;;;;;;;;-0.80;99.90;;;;;;4123924;28;20263;-59
2022/01/21 11:50:13;;;;;;;;;;;-0.90;99.90;;;;;;4124081;28;19910;-58
2022/01/21 11:52:15;;;;;;;;;;;-0.80;99.90;;;;;;4123372;28;19918;-57
2022/01/21 11:54:22;;;;;;;;;;;-0.70;99.90;;;;;;4123778;28;20255;-58
2022/01/21 11:56:29;;;;;;;;;;;-0.80;99.90;;;;;;4123613;28;20355;-59
2022/01/21 11:58:30;;;;;;;;;;;-0.80;99.90;;;;;;4123157;28;19922;-55
2022/01/21 12:00:33;;;;;;;;;;;-0.80;99.90;;;;;;4122963;28;19916;-54
2022/01/21 12:02:35;;;;;;;;;;;-0.90;99.90;;;;;;4123376;28;19980;-59
2022/01/21 12:04:37;;;;;;;;;;;-0.90;99.90;;;;;;4123027;28;19921;-58
2022/01/21 12:06:39;;;;;;;;;;;-1.00;99.90;;;;;;4137635;28;19909;-57
2022/01/21 12:08:49;;;;;;;;;;;-1.10;99.90;;;;;;4134549;28;19910;-53
2022/01/21 12:10:50;;;;;;;;;;;-1.00;99.90;;;;;;4129391;28;20312;-56
2022/01/21 12:13:02;;;;;;;;;;;-1.00;99.90;;;;;;4134189;28;19933;-61
2022/01/21 12:15:05;;;;;;;;;;;-0.90;99.90;;;;;;4136582;28;20035;-59
2022/01/21 12:17:21;;;;;;;;;;;-0.90;99.90;;;;;;4142388;28;19983;-58
2022/01/21 12:19:34;;;;;;;;;;;-0.90;99.90;;;;;;4131927;28;19917;-59
2022/01/21 12:21:37;;;;;;;;;;;-0.90;99.90;;;;;;4126460;28;19910;-57
2022/01/21 12:23:42;;;;;;;;;;;-0.90;99.90;;;;;;4127230;28;20310;-57
2022/01/21 12:26:03;;;;;;;;;;;-1.00;99.90;;;;;;4142378;28;19906;-54
2022/01/21 12:28:14;;;;;;;;;;;-1.00;99.90;;;;;;4137723;28;19906;-61
2022/01/21 12:30:19;;;;;;;;;;;-1.00;99.90;;;;;;4126157;28;19909;-56
2022/01/21 12:32:30;;;;;;;;;;;-1.00;99.90;;;;;;4126302;28;19914;-61
2022/01/21 12:34:50;;;;;;;;;;;-1.00;99.90;;;;;;4125842;28;20374;-56
2022/01/21 12:36:52;;;;;;;;;;;-1.10;99.90;;;;;;4125485;28;19909;-55
2022/01/21 12:41:12;;;;;;;;;;;-1.10;99.90;;;;;;4126636;28;20343;-54
2022/01/21 12:43:31;;;;;;;;;;;-1.10;99.90;;;;;;4125774;28;19965;-60
2022/01/21 12:45:32;;;;;;;;;;;-1.10;99.90;;;;;;4126430;28;19941;-58